createdAt,value
2023-01-12T00:00:39.090Z,100169.85
2023-01-12T00:03:26.896Z,100173.11
2023-01-12T00:06:06.259Z,100173.97
2023-01-12T00:08:40.445Z,100171.52
2023-01-12T00:11:14.835Z,100174.50
2023-01-12T00:13:49.049Z,100174.87
2023-01-12T00:16:38.213Z,100171.45
2023-01-12T00:19:14.338Z,100172.61
2023-01-12T00:21:59.871Z,100174.35
2023-01-12T00:24:35.845Z,100174.33
2023-01-12T00:27:11.161Z,100179.29
2023-01-12T00:29:45.376Z,100182.45
2023-01-12T00:32:22.532Z,100178.34
2023-01-12T00:34:56.485Z,100180.46
2023-01-12T00:37:30.569Z,100184.69
2023-01-12T00:40:04.562Z,100184.69
2023-01-12T00:42:55.896Z,100187.83
2023-01-12T00:45:30.474Z,100186.95
2023-01-12T00:48:04.175Z,100190.89
2023-01-12T00:50:38.459Z,100189.31
2023-01-12T00:53:11.923Z,100189.02
2023-01-12T00:55:46.486Z,100190.44
2023-01-12T00:58:20.617Z,100187.77
2023-01-12T01:00:54.010Z,100183.55
2023-01-12T01:03:27.690Z,100185.59
2023-01-12T01:06:07.039Z,100191.80
2023-01-12T01:08:41.062Z,100191.60
2023-01-12T01:11:16.982Z,100195.42
2023-01-12T01:13:50.776Z,100192.65
2023-01-12T01:16:25.740Z,100188.12
2023-01-12T01:19:00.877Z,100192.23
2023-01-12T01:21:34.703Z,100191.27
2023-01-12T01:24:11.142Z,100189.25
2023-01-12T01:26:45.378Z,100187.42
2023-01-12T01:29:18.892Z,100183.14
2023-01-12T01:31:52.947Z,100175.11
2023-01-12T01:34:26.901Z,100174.89
2023-01-12T01:37:00.870Z,100177.42
2023-01-12T01:39:34.416Z,100175.00
2023-01-12T01:42:28.446Z,100176.79
2023-01-12T01:45:06.410Z,100180.14
2023-01-12T01:47:44.505Z,100176.34
2023-01-12T01:50:24.688Z,100176.62
2023-01-12T01:53:01.556Z,100179.35
2023-01-12T01:55:39.388Z,100176.46
2023-01-12T01:58:18.001Z,100176.91
2023-01-12T02:00:53.068Z,100175.65
2023-01-12T02:03:28.012Z,100177.64
2023-01-12T02:06:02.382Z,100179.74
2023-01-12T02:08:43.225Z,100184.14
2023-01-12T02:11:31.646Z,100189.32
2023-01-12T02:14:21.730Z,100187.37
2023-01-12T02:17:05.597Z,100185.13
2023-01-12T02:20:12.170Z,100187.25
2023-01-12T02:23:12.789Z,100188.14
2023-01-12T02:26:10.768Z,100190.77
2023-01-12T02:29:15.128Z,100195.33
2023-01-12T02:31:52.928Z,100200.23
2023-01-12T02:34:37.764Z,100197.06
2023-01-12T02:37:22.425Z,100196.20
2023-01-12T02:40:03.673Z,100195.74
2023-01-12T02:42:47.965Z,100189.58
2023-01-12T02:45:36.824Z,100189.27
2023-01-12T02:48:15.772Z,100195.58
2023-01-12T02:50:56.129Z,100198.14
2023-01-12T02:53:36.639Z,100197.64
2023-01-12T02:56:12.100Z,100199.20
2023-01-12T02:58:52.931Z,100203.13
2023-01-12T03:01:29.046Z,100207.85
2023-01-12T03:04:04.398Z,100212.15
2023-01-12T03:06:48.550Z,100210.13
2023-01-12T03:09:22.478Z,100209.93
2023-01-12T03:12:01.201Z,100211.25
2023-01-12T03:14:36.944Z,100216.29
2023-01-12T03:17:16.455Z,100220.89
2023-01-12T03:19:52.139Z,100228.27
2023-01-12T03:22:26.392Z,100231.96
2023-01-12T03:25:02.631Z,100229.75
2023-01-12T03:27:42.238Z,100230.88
2023-01-12T03:30:20.563Z,100233.56
2023-01-12T03:32:54.948Z,100228.73
2023-01-12T03:35:34.950Z,100231.36
2023-01-12T03:38:17.681Z,100232.30
2023-01-12T03:40:57.781Z,100231.57
2023-01-12T03:43:38.500Z,100232.66
2023-01-12T03:46:18.368Z,100232.90
2023-01-12T03:48:57.124Z,100232.91
2023-01-12T03:51:31.597Z,100235.77
2023-01-12T03:54:07.577Z,100232.70
2023-01-12T03:56:43.510Z,100230.53
2023-01-12T03:59:17.774Z,100225.14
2023-01-12T04:01:52.032Z,100222.91
2023-01-12T04:04:25.950Z,100227.55
2023-01-12T04:07:01.725Z,100227.70
2023-01-12T04:09:35.779Z,100228.13
2023-01-12T04:12:14.474Z,100230.93
2023-01-12T04:14:48.990Z,100231.17
2023-01-12T04:17:25.600Z,100234.79
2023-01-12T04:19:59.284Z,100233.44
2023-01-12T04:22:48.182Z,100235.86
2023-01-12T04:25:23.598Z,100239.58
2023-01-12T04:28:01.203Z,100246.80
2023-01-12T04:30:36.328Z,100246.81
2023-01-12T04:33:11.830Z,100248.88
2023-01-12T04:35:48.453Z,100253.41
2023-01-12T04:38:22.105Z,100252.00
2023-01-12T04:40:58.394Z,100250.80
2023-01-12T04:43:32.209Z,100245.55
2023-01-12T04:46:11.199Z,100247.04
2023-01-12T04:48:46.155Z,100246.04
2023-01-12T04:51:19.988Z,100252.16
2023-01-12T04:53:54.007Z,100255.55
2023-01-12T04:56:27.493Z,100254.77
2023-01-12T04:59:01.769Z,100254.15
2023-01-12T05:01:37.149Z,100253.36
2023-01-12T05:04:11.291Z,100255.38
2023-01-12T05:06:45.306Z,100253.67
2023-01-12T05:09:35.989Z,100252.39
2023-01-12T05:12:10.210Z,100246.95
2023-01-12T05:14:44.002Z,100246.11
2023-01-12T05:17:17.742Z,100243.67
2023-01-12T05:19:51.559Z,100247.25
2023-01-12T05:22:25.113Z,100252.95
2023-01-12T05:24:58.993Z,100253.45
2023-01-12T05:27:32.961Z,100252.67
2023-01-12T05:30:07.932Z,100248.98
2023-01-12T05:32:42.730Z,100253.05
2023-01-12T05:35:16.779Z,100253.53
2023-01-12T05:37:50.605Z,100255.77
2023-01-12T05:40:24.666Z,100260.62
2023-01-12T05:43:16.029Z,100264.81
2023-01-12T05:45:50.187Z,100265.96
2023-01-12T05:48:23.987Z,100268.13
2023-01-12T05:51:01.029Z,100266.20
2023-01-12T05:53:34.701Z,100264.08
2023-01-12T05:56:13.669Z,100265.79
2023-01-12T05:58:49.904Z,100269.03
2023-01-12T06:01:24.921Z,100274.00
2023-01-12T06:04:01.109Z,100276.86
2023-01-12T06:06:34.936Z,100281.41
2023-01-12T06:09:09.230Z,100280.61
2023-01-12T06:12:08.953Z,100284.39
2023-01-12T06:14:42.664Z,100283.45
2023-01-12T06:17:16.181Z,100282.24
2023-01-12T06:19:50.063Z,100281.75
2023-01-12T06:22:24.260Z,100284.17
2023-01-12T06:24:58.192Z,100286.15
2023-01-12T06:27:36.263Z,100284.30
2023-01-12T06:30:12.585Z,100289.11
2023-01-12T06:32:45.870Z,100291.49
2023-01-12T06:35:20.112Z,100294.26
2023-01-12T06:37:56.616Z,100296.32
2023-01-12T06:40:30.329Z,100298.17
2023-01-12T06:43:04.006Z,100304.89
2023-01-12T06:45:37.458Z,100304.46
2023-01-12T06:48:11.703Z,100300.58
2023-01-12T06:50:45.201Z,100298.90
2023-01-12T06:53:18.750Z,100294.13
2023-01-12T06:55:55.489Z,100290.73
2023-01-12T06:58:29.171Z,100294.02
2023-01-12T07:01:06.325Z,100298.93
2023-01-12T07:03:40.272Z,100299.17
2023-01-12T07:06:14.839Z,100304.74
2023-01-12T07:08:48.480Z,100313.45
2023-01-12T07:11:22.283Z,100317.73
2023-01-12T07:13:56.939Z,100320.59
2023-01-12T07:16:30.626Z,100323.80
2023-01-12T07:19:04.348Z,100327.63
2023-01-12T07:21:38.133Z,100328.42
2023-01-12T07:24:12.241Z,100334.48
2023-01-12T07:26:45.985Z,100336.11
2023-01-12T07:29:19.865Z,100335.70
2023-01-12T07:31:54.095Z,100334.52
2023-01-12T07:34:28.081Z,100334.77
2023-01-12T07:37:01.790Z,100331.95
2023-01-12T07:39:35.632Z,100332.46
2023-01-12T07:42:26.044Z,100338.45
2023-01-12T07:44:59.672Z,100350.13
2023-01-12T07:47:33.466Z,100345.91
2023-01-12T07:50:08.302Z,100350.78
2023-01-12T07:52:41.885Z,100347.59
2023-01-12T07:55:17.059Z,100341.36
2023-01-12T07:58:00.221Z,100345.95
2023-01-12T08:00:34.602Z,100352.81
2023-01-12T08:03:10.429Z,100357.55
2023-01-12T08:05:44.503Z,100358.00
2023-01-12T08:08:18.271Z,100366.32
2023-01-12T08:10:52.515Z,100360.27
2023-01-12T08:13:26.188Z,100362.85
2023-01-12T08:16:05.458Z,100367.45
2023-01-12T08:18:45.382Z,100372.75
2023-01-12T08:21:23.793Z,100378.11
2023-01-12T08:24:01.127Z,100372.53
2023-01-12T08:26:38.528Z,100372.20
2023-01-12T08:29:16.430Z,100372.73
2023-01-12T08:31:51.096Z,100375.77
2023-01-12T08:34:24.818Z,100375.25
2023-01-12T08:37:00.421Z,100369.27
2023-01-12T08:39:35.620Z,100372.69
2023-01-12T08:42:09.533Z,100377.38
2023-01-12T08:44:43.350Z,100376.42
2023-01-12T08:47:22.107Z,100375.20
2023-01-12T08:49:55.738Z,100372.53
2023-01-12T08:52:33.284Z,100371.02
2023-01-12T08:55:11.648Z,100378.11
2023-01-12T08:57:45.659Z,100380.11
2023-01-12T09:00:21.962Z,100381.04
2023-01-12T09:02:55.651Z,100383.79
2023-01-12T09:05:30.681Z,100383.04
2023-01-12T09:08:04.450Z,100389.08
2023-01-12T09:10:38.277Z,100381.95
2023-01-12T09:13:16.245Z,100378.95
2023-01-12T09:16:01.325Z,100374.64
2023-01-12T09:18:44.646Z,100370.77
2023-01-12T09:21:19.810Z,100372.65
2023-01-12T09:23:53.968Z,100368.69
2023-01-12T09:26:32.288Z,100369.71
2023-01-12T09:29:06.471Z,100366.36
2023-01-12T09:31:41.864Z,100362.84
2023-01-12T09:34:15.881Z,100362.98
2023-01-12T09:36:52.801Z,100358.54
2023-01-12T09:39:29.302Z,100355.38
2023-01-12T09:42:20.907Z,100353.23
2023-01-12T09:45:11.999Z,100350.30
2023-01-12T09:47:55.696Z,100350.98
2023-01-12T09:50:34.219Z,100349.84
2023-01-12T09:53:14.431Z,100348.66
2023-01-12T09:55:53.770Z,100345.59
2023-01-12T09:58:40.420Z,100342.30
2023-01-12T10:01:28.789Z,100340.64
2023-01-12T10:04:05.191Z,100336.46
2023-01-12T10:06:39.545Z,100330.35
2023-01-12T10:09:18.171Z,100326.17
2023-01-12T10:11:53.541Z,100320.66
2023-01-12T10:14:53.845Z,100318.13
2023-01-12T10:17:50.307Z,100314.78
2023-01-12T10:20:34.322Z,100311.73
2023-01-12T10:23:17.149Z,100311.52
2023-01-12T10:25:52.238Z,100309.60
2023-01-12T10:28:30.070Z,100310.89
2023-01-12T10:31:04.366Z,100315.65
2023-01-12T10:33:37.958Z,100312.95
2023-01-12T10:36:18.105Z,100307.27
2023-01-12T10:39:03.566Z,100301.30
2023-01-12T10:41:38.385Z,100303.26
2023-01-12T10:44:18.020Z,100303.48
2023-01-12T10:47:11.889Z,100298.48
2023-01-12T10:49:45.518Z,100290.98
2023-01-12T10:52:39.493Z,100287.31
2023-01-12T10:55:21.712Z,100284.25
2023-01-12T10:57:56.087Z,100277.88
2023-01-12T11:00:31.490Z,100280.45
2023-01-12T11:03:05.088Z,100271.89
2023-01-12T11:05:40.174Z,100265.08
2023-01-12T11:08:27.797Z,100270.52
2023-01-12T11:11:16.285Z,100267.23
2023-01-12T11:13:48.337Z,100264.33
2023-01-12T11:16:26.599Z,100261.16
2023-01-12T11:19:18.023Z,100258.70
2023-01-12T11:21:55.875Z,100254.95
2023-01-12T11:24:53.588Z,100253.31
2023-01-12T11:27:31.629Z,100254.38
2023-01-12T11:30:13.498Z,100252.37
2023-01-12T11:32:55.931Z,100252.48
2023-01-12T11:35:37.943Z,100260.00
2023-01-12T11:38:18.926Z,100257.73
2023-01-12T11:40:54.263Z,100243.13
2023-01-12T11:43:56.225Z,100236.83
2023-01-12T11:46:36.503Z,100233.77
2023-01-12T11:49:18.472Z,100229.52
2023-01-12T11:51:57.347Z,100228.30
2023-01-12T11:54:30.058Z,100225.34
2023-01-12T11:57:37.104Z,100223.77
2023-01-12T12:00:29.763Z,100228.02
2023-01-12T12:03:19.862Z,100227.41
2023-01-12T12:06:01.100Z,100229.26
2023-01-12T12:08:49.469Z,100226.66
2023-01-12T12:11:36.467Z,100220.30
2023-01-12T12:14:29.347Z,100219.60
2023-01-12T12:17:11.213Z,100213.07
2023-01-12T12:19:55.565Z,100212.83
2023-01-12T12:22:48.891Z,100214.38
2023-01-12T12:25:30.827Z,100212.63
2023-01-12T12:28:29.598Z,100212.16
2023-01-12T12:31:17.723Z,100214.83
2023-01-12T12:34:22.167Z,100215.17
2023-01-12T12:37:03.010Z,100213.80
2023-01-12T12:39:47.894Z,100215.47
2023-01-12T12:42:54.189Z,100214.16
2023-01-12T12:45:37.609Z,100216.15
2023-01-12T12:48:16.862Z,100214.13
2023-01-12T12:51:01.926Z,100211.85
2023-01-12T12:53:37.559Z,100206.71
2023-01-12T12:56:14.679Z,100205.57
2023-01-12T12:58:50.039Z,100204.96
2023-01-12T13:01:58.671Z,100203.36
2023-01-12T13:05:04.985Z,100203.09
2023-01-12T13:07:45.726Z,100199.44
2023-01-12T13:10:35.783Z,100195.77
2023-01-12T13:13:27.817Z,100187.62
2023-01-12T13:16:47.518Z,100179.73
2023-01-12T13:19:39.122Z,100178.36
2023-01-12T13:22:45.743Z,100174.06
2023-01-12T13:25:57.117Z,100174.06
2023-01-12T13:28:31.083Z,100172.08
2023-01-12T13:31:06.945Z,100165.80
2023-01-12T13:33:40.693Z,100162.50
2023-01-12T13:36:14.982Z,100161.82
2023-01-12T13:39:14.657Z,100158.09
2023-01-12T13:42:08.247Z,100158.73
2023-01-12T13:44:46.227Z,100159.02
2023-01-12T13:47:27.185Z,100160.17
2023-01-12T13:50:04.190Z,100166.04
2023-01-12T13:52:39.784Z,100165.16
2023-01-12T13:55:27.898Z,100166.63
2023-01-12T13:58:04.777Z,100164.67
2023-01-12T14:00:38.385Z,100157.80
2023-01-12T14:03:27.250Z,100153.57
2023-01-12T14:06:06.121Z,100150.18
2023-01-12T14:09:06.651Z,100143.84
2023-01-12T14:12:04.888Z,100141.19
2023-01-12T14:15:17.051Z,100143.98
2023-01-12T14:17:53.148Z,100144.38
2023-01-12T14:20:30.181Z,100143.30
2023-01-12T14:23:25.570Z,100140.71
2023-01-12T14:26:20.178Z,100132.30
2023-01-12T14:28:54.661Z,100129.88
2023-01-12T14:31:33.666Z,100128.47
2023-01-12T14:34:08.824Z,100134.30
2023-01-12T14:36:46.997Z,100132.41
2023-01-12T14:39:23.124Z,100127.79
2023-01-12T14:42:16.227Z,100127.06
2023-01-12T14:45:15.111Z,100125.65
2023-01-12T14:47:48.850Z,100123.42
2023-01-12T14:50:24.275Z,100124.81
2023-01-12T14:52:58.054Z,100124.35
2023-01-12T14:55:41.627Z,100121.51
2023-01-12T14:58:23.555Z,100119.20
2023-01-12T15:00:57.506Z,100116.77
2023-01-12T15:03:42.886Z,100113.86
2023-01-12T15:06:19.529Z,100113.19
2023-01-12T15:09:01.974Z,100118.53
2023-01-12T15:11:37.949Z,100115.92
2023-01-12T15:14:25.649Z,100114.29
2023-01-12T15:17:17.047Z,100112.12
2023-01-12T15:20:08.631Z,100116.23
2023-01-12T15:23:08.777Z,100120.14
2023-01-12T15:25:43.238Z,100121.92
2023-01-12T15:28:17.338Z,100120.46
2023-01-12T15:30:51.033Z,100122.67
2023-01-12T15:33:25.384Z,100124.63
2023-01-12T15:35:59.189Z,100125.80
2023-01-12T15:38:32.755Z,100130.02
2023-01-12T15:41:07.719Z,100135.39
2023-01-12T15:43:41.398Z,100137.78
2023-01-12T15:46:21.729Z,100136.83
2023-01-12T15:48:55.468Z,100138.85
2023-01-12T15:51:29.185Z,100143.69
2023-01-12T15:54:03.215Z,100140.90
2023-01-12T15:56:37.025Z,100139.71
2023-01-12T15:59:11.021Z,100141.39
2023-01-12T16:01:47.317Z,100139.48
2023-01-12T16:07:18.470Z,100134.98
2023-01-12T16:09:52.147Z,100131.06
2023-01-12T16:12:26.476Z,100130.33
2023-01-12T16:15:01.553Z,100127.40
2023-01-12T16:17:35.826Z,100124.66
2023-01-12T16:20:12.078Z,100125.39
2023-01-12T16:22:47.034Z,100127.30
2023-01-12T16:25:21.309Z,100130.52
2023-01-12T16:28:00.983Z,100125.05
2023-01-12T16:30:35.060Z,100117.98
2023-01-12T16:33:08.762Z,100117.92
2023-01-12T16:35:42.451Z,100111.70
2023-01-12T16:38:17.582Z,100110.52
2023-01-12T16:40:51.824Z,100115.95
2023-01-12T16:43:26.509Z,100117.55
2023-01-12T16:46:00.535Z,100116.55
2023-01-12T16:48:38.889Z,100117.35
2023-01-12T16:51:17.986Z,100115.13
2023-01-12T16:53:51.721Z,100111.46
2023-01-12T16:56:25.508Z,100115.31
2023-01-12T16:58:59.086Z,100112.70
2023-01-12T17:01:33.614Z,100116.26
2023-01-12T17:04:07.690Z,100118.24
2023-01-12T17:06:42.541Z,100118.54
2023-01-12T17:09:17.189Z,100113.20
2023-01-12T17:11:52.955Z,100107.81
2023-01-12T17:14:27.920Z,100103.32
2023-01-12T17:17:04.301Z,100101.15
2023-01-12T17:19:40.171Z,100099.80
2023-01-12T17:22:14.831Z,100095.97
2023-01-12T17:24:49.144Z,100097.62
2023-01-12T17:27:23.003Z,100096.09
2023-01-12T17:29:56.604Z,100094.23
2023-01-12T17:32:30.496Z,100092.73
2023-01-12T17:35:07.534Z,100090.36
2023-01-12T17:37:41.210Z,100090.27
2023-01-12T17:40:16.536Z,100086.73
2023-01-12T17:43:08.100Z,100085.56
2023-01-12T17:45:45.311Z,100082.36
2023-01-12T17:48:20.081Z,100078.17
2023-01-12T17:50:53.849Z,100073.15
2023-01-12T17:53:28.290Z,100070.54
2023-01-12T17:56:06.499Z,100069.91
2023-01-12T17:58:41.227Z,100071.80
2023-01-12T18:01:17.835Z,100071.06
2023-01-12T18:03:51.939Z,100068.82
2023-01-12T18:06:27.183Z,100069.34
2023-01-12T18:09:01.716Z,100071.21
2023-01-12T18:11:36.417Z,100072.58
2023-01-12T18:14:11.323Z,100071.98
2023-01-12T18:16:45.550Z,100070.03
2023-01-12T18:19:19.723Z,100064.48
2023-01-12T18:21:54.176Z,100059.33
2023-01-12T18:24:27.869Z,100057.02
2023-01-12T18:27:01.870Z,100054.73
2023-01-12T18:29:36.932Z,100053.48
2023-01-12T18:32:11.707Z,100048.41
2023-01-12T18:34:46.954Z,100042.11
2023-01-12T18:37:21.273Z,100038.40
2023-01-12T18:39:55.946Z,100038.85
2023-01-12T18:42:47.601Z,100039.19
2023-01-12T18:45:22.512Z,100042.58
2023-01-12T18:48:25.181Z,100039.57
2023-01-12T18:51:17.274Z,100031.52
2023-01-12T18:53:52.307Z,100027.38
2023-01-12T18:56:27.550Z,100029.00
2023-01-12T18:59:02.027Z,100024.02
2023-01-12T19:01:36.274Z,100024.01
2023-01-12T19:04:15.995Z,100023.84
2023-01-12T19:06:58.956Z,100019.88
2023-01-12T19:09:39.107Z,100019.38
2023-01-12T19:12:14.846Z,100016.50
2023-01-12T19:15:07.343Z,100019.14
2023-01-12T19:17:43.482Z,100018.88
2023-01-12T19:20:18.125Z,100018.41
2023-01-12T19:23:09.653Z,100018.20
2023-01-12T19:26:01.758Z,100015.16
2023-01-12T19:28:40.983Z,100015.42
2023-01-12T19:31:17.278Z,100014.23
2023-01-12T19:33:54.347Z,100012.15
2023-01-12T19:36:29.356Z,100009.33
2023-01-12T19:39:07.592Z,100008.58
2023-01-12T19:42:01.961Z,100005.06
2023-01-12T19:44:37.618Z,100006.89
2023-01-12T19:47:13.452Z,100001.65
2023-01-12T19:49:47.677Z,100003.19
2023-01-12T19:52:22.683Z,100006.20
2023-01-12T19:54:58.416Z,100004.25
2023-01-12T19:57:34.236Z,100003.75
2023-01-12T20:00:14.324Z,100004.35
2023-01-12T20:02:49.362Z,100006.42
2023-01-12T20:05:27.719Z,100006.02
2023-01-12T20:08:05.421Z,100014.41
2023-01-12T20:10:42.630Z,100010.64
2023-01-12T20:13:18.960Z,100009.52
2023-01-12T20:15:58.147Z,100005.86
2023-01-12T20:18:33.404Z,100005.27
2023-01-12T20:21:12.925Z,100009.30
2023-01-12T20:23:49.116Z,100006.94
2023-01-12T20:26:26.140Z,100007.36
2023-01-12T20:29:01.627Z,100009.55
2023-01-12T20:31:37.758Z,100008.38
2023-01-12T20:34:12.727Z,100011.34
2023-01-12T20:36:47.882Z,100001.42
2023-01-12T20:39:24.444Z,100001.64
2023-01-12T20:42:01.967Z,100003.90
2023-01-12T20:44:37.532Z,99999.74
2023-01-12T20:47:12.971Z,99994.48
2023-01-12T20:49:46.828Z,99994.16
2023-01-12T20:52:21.360Z,99999.70
2023-01-12T20:54:56.561Z,99996.02
2023-01-12T20:57:31.843Z,100000.85
2023-01-12T21:00:06.747Z,99997.39
2023-01-12T21:02:42.689Z,99993.60
2023-01-12T21:05:18.933Z,99992.34
2023-01-12T21:08:00.015Z,99995.36
2023-01-12T21:10:42.788Z,99994.76
2023-01-12T21:13:16.378Z,99994.49
2023-01-12T21:15:50.328Z,99996.31
2023-01-12T21:18:23.969Z,100001.85
2023-01-12T21:20:58.313Z,99997.79
2023-01-12T21:23:32.173Z,99994.00
2023-01-12T21:26:08.332Z,99986.98
2023-01-12T21:28:43.007Z,99991.23
2023-01-12T21:31:17.144Z,99981.23
2023-01-12T21:33:51.113Z,99984.18
2023-01-12T21:36:25.308Z,99981.57
2023-01-12T21:38:59.529Z,99973.58
2023-01-12T21:41:53.336Z,99973.02
2023-01-12T21:44:27.948Z,99967.52
2023-01-12T21:47:02.298Z,99966.80
2023-01-12T21:49:36.161Z,99971.59
2023-01-12T21:52:09.774Z,99974.88
2023-01-12T21:54:43.686Z,99981.88
2023-01-12T21:57:17.444Z,99980.70
2023-01-12T21:59:50.997Z,99981.93
2023-01-12T22:02:24.736Z,99979.10
2023-01-12T22:04:58.729Z,99974.35
2023-01-12T22:07:32.587Z,99970.83
2023-01-12T22:10:20.437Z,99971.11
2023-01-12T22:12:57.206Z,99967.30
2023-01-12T22:15:32.083Z,99962.88
2023-01-12T22:18:07.376Z,99959.15
2023-01-12T22:20:42.290Z,99953.07
2023-01-12T22:23:16.803Z,99954.08
2023-01-12T22:25:51.217Z,99955.20
2023-01-12T22:28:24.883Z,99956.55
2023-01-12T22:30:58.355Z,99951.77
2023-01-12T22:33:32.554Z,99953.16
2023-01-12T22:36:08.642Z,99955.23
2023-01-12T22:38:42.983Z,99951.38
2023-01-12T22:41:16.904Z,99945.55
2023-01-12T22:43:51.408Z,99938.09
2023-01-12T22:46:27.132Z,99936.19
2023-01-12T22:49:01.676Z,99936.48
2023-01-12T22:51:35.407Z,99930.66
2023-01-12T22:54:09.193Z,99924.56
2023-01-12T22:56:43.006Z,99920.14
2023-01-12T22:59:17.026Z,99912.88
2023-01-12T23:01:50.915Z,99910.95
2023-01-12T23:04:25.003Z,99915.98
2023-01-12T23:06:58.683Z,99919.20
2023-01-12T23:09:32.435Z,99917.77
2023-01-12T23:12:06.343Z,99919.50
2023-01-12T23:14:40.693Z,99925.02
2023-01-12T23:17:15.080Z,99923.89
2023-01-12T23:19:49.233Z,99922.22
2023-01-12T23:22:22.798Z,99918.52
2023-01-12T23:24:56.631Z,99919.55
2023-01-12T23:27:30.620Z,99922.06
2023-01-12T23:30:04.604Z,99920.66
2023-01-12T23:35:30.072Z,99921.13
2023-01-12T23:38:04.142Z,99920.60
2023-01-12T23:40:37.931Z,99923.07
2023-01-12T23:43:11.988Z,99920.44
2023-01-12T23:45:45.783Z,99923.57
2023-01-12T23:48:19.531Z,99925.85
2023-01-12T23:50:54.155Z,99926.11
2023-01-12T23:53:27.795Z,99923.96
2023-01-12T23:56:06.949Z,99927.98
2023-01-12T23:58:40.685Z,99926.34
